Skopje-Petrovec, Macedonia

07:32 PM CEST on korrik 31, 2014 (GMT +0200)
Skopje (LWSK) Elev 784 ft | 41.97 °N, 21.65 °E | Change Station

Current weather conditions updated 2 minutes ago

Mostly Cloudy
shumica me re
70 °F
Feels Like 70 °F
N
7
Era e paqendrueshme Era from LVL

Tomorrow is forecast to be Cooler than today. Showers and thunderstorms.

Sot
High -- | Low -- °F
--% Chance of Precip.
Yesterday
High -- | Low -- °F
Precip. -- ne
5:25 AM 7:53 PM
Waxing Crescent, 19% visible
Presioni 29.77 ne
Visioni 6.2 milje
Clouds Few 3300 ft
shumica me re 6000 ft
Pika E Veses 64 °F
Lageshtira E ajrit 83%
Rainfall 0.00 ne
Snow Depth Not available.
UV 0 out of 12
Pollen Not available.
Air Quality Not available.
Flu Activity Not available.
METAR LWSK 311730Z 06006KT 9999 FEW033 BKN060 21/18 Q1008 NOSIG

More Conditions Fewer Conditions

Presioni 29.77 ne
Visioni 6.2 milje
Clouds Few 3300 ft
shumica me re 6000 ft
Pika E Veses 64 °F
Lageshtira E ajrit 83%
Rainfall 0.00 ne
Snow Depth Not available.
UV 0 out of 12
Pollen Not available.
Air Quality Not available.
Flu Activity Not available.
METAR LWSK 311730Z 06006KT 9999 FEW033 BKN060 21/18 Q1008 NOSIG

More Conditions Fewer Conditions

10-Day Weather Forecast

Almanac

Astronomy

Jul. 31, 2014 Rise Set
Actual Time 5:25 AM CEST 7:53 PM CEST
Civil Twilight 4:53 AM CEST 8:24 PM CEST
Nautical Twilight 4:14 AM CEST 9:04 PM CEST
Astronomical Twilight 3:30 AM CEST 9:47 PM CEST
Moon 9:40 AM CEST 9:51 PM CEST
Length Of Visible Light 15h 30m
Length of Day
14h 27m
Tomorrow will be 2m 7s shorter.
Waxing Crescent, 19% of the Moon is Illuminated
Sot
Waxing Crescent
Aug 3
First Quarter
Aug 10
Full
Aug 17
Last Quarter
Aug 25
New

Today's Extremes

Country Highs Country Lows

Community

WunderPhotos

Upload Photos

1,739,385 photos uploaded!

Nearby

Snow Depth

Not available.

Earthquake Activity

City Distance Mag. Time & Date
No recent earthquake activity has been reported nearby.
Minimum magnitude displayed is 2.5.

Coastal Water Temperatures

Vend Temperatura
No Stations Reporting

Nearby Weather Stations

There are no personal weather stations in this area.